Aérodrome :
LOGIN :

S'inscrire | Disclaimer

   EN    FR    IT 

 










Légende :    VFR   VFR Marginal   IFR   IFR Intensif   IFR Très Intensif
Visi : 
Plafond : 
>= 8 km
>= 3000ft
5 à 8 km
1000 à 3000 ft
1500m à 5 km
500 à 1000 ft
800 à 1500m
200 à 500 ft
< 800m
< 200 ft
Symboles :   Orages  Brouillard  Fortes neiges  Fortes précipitations  Vent > 20 kt
SIGMETs :   Divers  Orages  Givrage  Turbulence  Onde Orograph.  Cendres Volcan.







- Altitude de l'aérodrome : 87 ft
- Code IATA : FSC
- Voir les cartes d'approche


LFKF - Figari

DERNIER METAR :
  • 210630Z AUTO 26015KT 9999 SCT021 BKN027 BKN033 18/12 Q1012 BECMG 26015G27KT

METARs EXPIRÉS :
  • 210600Z AUTO 25015KT 9999 FEW019 BKN027 BKN038 17/13 Q1012 BECMG 26015G27KT
  • 210530Z AUTO 26014KT 9999 FEW020 SCT027 BKN032 17/12 Q1012 BECMG 26015G27KT
  • 210500Z AUTO 24016KT 9999 FEW019 BKN027 BKN032 16/12 Q1012 NOSIG
  • 210430Z AUTO 25015KT 9999 FEW021 BKN027 OVC036 15/12 Q1012 NOSIG
  • 210400Z AUTO 25015KT 9999 FEW023 BKN029 OVC036 15/12 Q1012 NOSIG

TAF TAF LFKF
Valide du 21 à 03h jusqu'au 22 à 03h UTC


210200Z 2103/2203 25012KT 9999 FEW016 BKN028
BECMG 2107/2109 26015G27KT NSC
BECMG 2117/2119 25012KT
PROB40
TEMPO 2121/2203 BKN010
Pas de NOTAMs connus pour ce terrain.
1 SIGMET publié pour la FIR Marseille (LFMM) :
 
Onde orographique forte
LFMM SIGMET 1 VALID 210400/210800 LFPW
LFMM MARSEILLE FIR/UIR SEV MTW FCST E OF E00900 SFC/FL100 STNR NC=



MET'MAP, la Météo Aéronautique d'un coup d'oeil ! - Copyright ORBIFLY Décembre 2007 - Disclaimer

ORBIFLY MET'MAP TEAM :

Programmation & Développement : Alexandra Zaïnal
Conception & Développement : Baudouin d'Aumeries
Co-Programmation & Développement : Marc-Olivier Méhu
Soutien technique & logistique : Manuel Goepfert

Contact : metmap@orbifly.com




SOURCES & CREDITS :

   NOAA